Time;durP1;ratioP1;P1;durP2;ratioP2;P2;SDS_P1;SDS_P2;PMS_P1;PMS_P2;Temp;Humidity;BMP_temperature;BMP_pressure;BME280_temperature;BME280_humidity;BME280_pressure;Samples;Min_cycle;Max_cycle;Signal;HPM_P1;HPM_P2
2020/12/12 00:01:58;;;;;;;39.23;21.67;;;4.00;99.90;;;;;;4123584;28;20279;-45
2020/12/12 00:03:59;;;;;;;38.77;20.40;;;4.00;99.90;;;;;;4140789;28;20279;-43
2020/12/12 00:06:00;;;;;;;35.20;18.57;;;4.00;99.90;;;;;;4149019;28;20279;-48
2020/12/12 00:08:03;;;;;;;33.50;19.17;;;4.10;99.90;;;;;;4157605;28;20270;-47
2020/12/12 00:10:04;;;;;;;41.47;20.70;;;4.00;99.90;;;;;;4157480;28;20693;-57
2020/12/12 00:12:06;;;;;;;38.30;20.87;;;4.10;99.90;;;;;;4148321;28;20608;-47
2020/12/12 00:14:07;;;;;;;34.87;18.50;;;4.10;99.90;;;;;;4141763;28;21145;-43
2020/12/12 00:16:08;;;;;;;33.13;19.13;;;4.10;99.90;;;;;;4141024;28;20275;-46
2020/12/12 00:18:09;;;;;;;39.33;20.73;;;4.00;99.90;;;;;;4141130;28;20790;-46
2020/12/12 00:20:11;;;;;;;35.13;18.60;;;4.00;99.90;;;;;;4140430;28;20279;-42
2020/12/12 00:22:12;;;;;;;36.83;19.80;;;4.00;99.90;;;;;;4141664;28;20279;-46
2020/12/12 00:24:14;;;;;;;39.10;19.77;;;4.00;99.90;;;;;;4151974;28;20294;-54
2020/12/12 00:26:19;;;;;;;37.43;19.03;;;3.90;99.90;;;;;;4156721;28;20349;-43
2020/12/12 00:28:20;;;;;;;36.23;19.40;;;3.90;99.90;;;;;;4156609;28;20255;-41
2020/12/12 00:30:22;;;;;;;40.00;21.97;;;3.90;99.90;;;;;;4157979;28;20340;-49
2020/12/12 00:32:23;;;;;;;41.03;21.67;;;3.90;99.90;;;;;;4156923;28;20753;-44
2020/12/12 00:34:25;;;;;;;44.37;21.40;;;3.90;99.90;;;;;;4157444;28;20275;-49
2020/12/12 00:36:26;;;;;;;44.30;21.97;;;3.90;99.90;;;;;;4156745;28;20294;-45
2020/12/12 00:38:27;;;;;;;62.33;26.10;;;3.80;99.90;;;;;;4157721;28;20403;-52
2020/12/12 00:40:28;;;;;;;80.50;27.07;;;3.80;99.90;;;;;;4157649;28;20328;-44
2020/12/12 00:42:30;;;;;;;81.50;26.90;;;3.80;99.90;;;;;;4156495;28;20325;-49
2020/12/12 00:44:31;;;;;;;100.17;27.50;;;3.80;99.90;;;;;;4147482;28;20271;-46
2020/12/12 00:46:33;;;;;;;72.60;27.00;;;3.70;99.90;;;;;;4150317;28;20658;-43
2020/12/12 00:48:34;;;;;;;96.53;28.80;;;3.70;99.90;;;;;;4151762;28;20695;-45
2020/12/12 00:50:35;;;;;;;66.80;27.67;;;3.70;99.90;;;;;;4140133;28;20345;-46
2020/12/12 00:52:36;;;;;;;82.13;29.20;;;3.70;99.90;;;;;;4141242;28;20318;-43
2020/12/12 00:54:40;;;;;;;59.93;25.93;;;3.70;99.90;;;;;;4140062;28;20329;-44
2020/12/12 00:56:42;;;;;;;60.93;26.13;;;3.70;99.90;;;;;;4141701;28;20283;-43
2020/12/12 00:58:44;;;;;;;61.37;25.03;;;3.70;99.90;;;;;;4138952;28;20283;-43
2020/12/12 01:00:46;;;;;;;59.87;27.03;;;3.80;99.90;;;;;;4150407;28;20267;-44
2020/12/12 01:02:47;;;;;;;68.00;27.80;;;3.80;99.90;;;;;;4156489;28;20275;-46
2020/12/12 01:04:48;;;;;;;65.77;27.90;;;3.80;99.90;;;;;;4143717;28;20279;-41
2020/12/12 01:06:49;;;;;;;55.63;27.10;;;3.80;99.90;;;;;;4139883;28;20310;-43
2020/12/12 01:08:50;;;;;;;53.60;25.97;;;3.80;99.90;;;;;;4140573;28;20345;-49
2020/12/12 01:10:51;;;;;;;57.43;25.80;;;3.80;99.90;;;;;;4140356;28;20298;-41
2020/12/12 01:12:52;;;;;;;53.00;26.27;;;3.80;99.90;;;;;;4139420;28;20283;-43
2020/12/12 01:14:53;;;;;;;49.97;23.63;;;3.90;99.90;;;;;;4145038;28;20692;-48
2020/12/12 01:16:59;;;;;;;56.47;24.97;;;3.90;99.90;;;;;;4147207;28;20337;-40
2020/12/12 01:19:00;;;;;;;48.80;23.23;;;3.90;99.90;;;;;;4147663;28;20340;-47
2020/12/12 01:21:01;;;;;;;47.07;23.37;;;3.80;99.90;;;;;;4155883;28;20353;-46
2020/12/12 01:23:03;;;;;;;54.73;23.70;;;3.80;99.90;;;;;;4147323;28;20275;-46
2020/12/12 01:25:04;;;;;;;53.47;24.40;;;3.80;99.90;;;;;;4144116;28;20284;-42
2020/12/12 01:27:05;;;;;;;59.93;25.03;;;3.80;99.90;;;;;;4140412;28;20322;-46
2020/12/12 01:29:06;;;;;;;54.87;24.07;;;3.80;99.90;;;;;;4138767;28;20716;-48
2020/12/12 01:31:13;;;;;;;50.20;22.97;;;3.80;99.90;;;;;;4123416;28;20288;-46
2020/12/12 01:33:15;;;;;;;59.10;23.67;;;3.80;99.90;;;;;;4155861;28;20262;-48
2020/12/12 01:35:17;;;;;;;51.50;22.00;;;3.80;99.90;;;;;;4157000;28;20321;-46
2020/12/12 01:37:18;;;;;;;51.30;22.23;;;3.90;99.90;;;;;;4138963;28;20354;-43
2020/12/12 01:39:19;;;;;;;64.30;24.37;;;3.90;99.90;;;;;;4140625;28;20283;-44
2020/12/12 01:41:20;;;;;;;62.90;23.50;;;3.90;99.90;;;;;;4125151;28;20674;-46
2020/12/12 01:43:21;;;;;;;61.07;25.17;;;4.00;99.90;;;;;;4128182;28;20271;-45
2020/12/12 01:45:22;;;;;;;61.00;22.80;;;4.00;99.90;;;;;;4140759;28;20280;-43
2020/12/12 01:47:25;;;;;;;84.37;25.57;;;4.10;99.90;;;;;;4136644;28;20341;-43
2020/12/12 01:49:27;;;;;;;71.27;25.03;;;4.10;99.90;;;;;;4124730;28;21128;-45
2020/12/12 01:51:28;;;;;;;64.20;22.60;;;4.10;99.90;;;;;;4125092;28;20288;-48
2020/12/12 01:53:29;;;;;;;66.43;23.97;;;4.20;99.90;;;;;;4124901;28;20284;-42
2020/12/12 01:55:31;;;;;;;63.43;23.70;;;4.20;99.90;;;;;;4138838;28;20335;-42
2020/12/12 01:57:32;;;;;;;76.37;26.37;;;4.10;99.90;;;;;;4140549;28;20295;-47
2020/12/12 01:59:33;;;;;;;75.27;25.87;;;4.20;99.90;;;;;;4138136;28;20276;-45
2020/12/12 02:01:39;;;;;;;70.60;26.07;;;4.20;99.90;;;;;;4124612;28;20346;-44
2020/12/12 02:03:42;;;;;;;62.20;23.90;;;4.20;99.90;;;;;;4123849;28;20307;-42
2020/12/12 02:05:45;;;;;;;69.57;26.43;;;4.20;99.90;;;;;;4124092;28;20300;-43
2020/12/12 02:07:46;;;;;;;64.70;23.30;;;4.20;99.90;;;;;;4123351;28;20272;-45
2020/12/12 02:09:48;;;;;;;70.70;25.17;;;4.20;99.90;;;;;;4127460;28;20328;-46
2020/12/12 02:11:50;;;;;;;58.87;23.33;;;4.20;99.90;;;;;;4140477;28;20333;-45
2020/12/12 02:13:55;;;;;;;72.33;25.93;;;4.20;99.90;;;;;;4134322;28;20295;-45
2020/12/12 02:15:56;;;;;;;69.73;24.87;;;4.20;99.90;;;;;;4126675;28;20684;-45
2020/12/12 02:17:57;;;;;;;67.07;23.07;;;4.20;99.90;;;;;;4126050;28;20272;-43
2020/12/12 02:19:58;;;;;;;66.43;22.80;;;4.30;99.90;;;;;;4127146;28;20264;-44
2020/12/12 02:22:03;;;;;;;63.80;22.83;;;4.30;99.90;;;;;;4125959;28;20261;-43
2020/12/12 02:24:04;;;;;;;57.53;20.77;;;4.30;99.90;;;;;;4127158;28;20840;-43
2020/12/12 02:26:05;;;;;;;50.67;18.67;;;4.30;99.90;;;;;;4138472;28;20280;-44
2020/12/12 02:28:11;;;;;;;53.40;17.43;;;4.30;99.90;;;;;;4110822;28;20692;-42
2020/12/12 02:30:12;;;;;;;55.20;18.57;;;4.30;99.90;;;;;;4122123;28;20299;-44
2020/12/12 02:32:14;;;;;;;50.40;18.07;;;4.30;99.90;;;;;;4142174;28;20279;-45
2020/12/12 02:34:15;;;;;;;47.30;18.27;;;4.30;99.90;;;;;;4141983;28;20280;-45
2020/12/12 02:36:16;;;;;;;44.80;18.03;;;4.40;99.90;;;;;;4144569;28;20829;-40
2020/12/12 02:38:18;;;;;;;49.80;18.47;;;4.40;99.90;;;;;;4146261;28;20283;-44
2020/12/12 02:40:19;;;;;;;43.80;16.17;;;4.40;99.90;;;;;;4142656;28;20283;-44
2020/12/12 02:42:20;;;;;;;42.57;16.40;;;4.40;99.90;;;;;;4141728;28;20333;-44
2020/12/12 02:44:21;;;;;;;45.90;18.13;;;4.40;99.90;;;;;;4143699;28;20271;-42
2020/12/12 02:46:22;;;;;;;44.90;16.50;;;4.40;99.90;;;;;;4141798;28;20766;-46
2020/12/12 02:48:24;;;;;;;37.37;15.07;;;4.40;99.90;;;;;;4141755;28;20283;-42
2020/12/12 02:50:26;;;;;;;36.23;15.23;;;4.40;99.90;;;;;;4152542;28;20349;-43
2020/12/12 02:52:27;;;;;;;40.23;15.50;;;4.40;99.90;;;;;;4152725;28;20271;-42
2020/12/12 02:54:29;;;;;;;33.67;14.30;;;4.50;99.90;;;;;;4142991;28;20267;-52
2020/12/12 02:56:30;;;;;;;39.33;15.27;;;4.50;99.90;;;;;;4140978;28;20890;-44
2020/12/12 02:58:31;;;;;;;30.27;14.30;;;4.50;99.90;;;;;;4142884;28;20291;-43
2020/12/12 03:00:33;;;;;;;28.80;13.40;;;4.50;99.90;;;;;;4141294;28;20833;-42
2020/12/12 03:02:34;;;;;;;30.67;13.60;;;4.50;99.90;;;;;;4143189;28;20263;-46
2020/12/12 03:04:35;;;;;;;33.53;15.27;;;4.50;99.90;;;;;;4142965;28;20267;-48
2020/12/12 03:06:38;;;;;;;41.07;17.23;;;4.50;99.90;;;;;;4157190;28;20275;-42
2020/12/12 03:08:39;;;;;;;40.57;18.43;;;4.50;99.90;;;;;;4142003;28;20295;-43
2020/12/12 03:10:40;;;;;;;42.20;17.30;;;4.50;99.90;;;;;;4142873;28;20295;-46
2020/12/12 03:12:41;;;;;;;44.33;17.43;;;4.50;99.90;;;;;;4140591;28;20306;-46
2020/12/12 03:14:42;;;;;;;42.73;18.60;;;4.40;99.90;;;;;;4142602;28;20333;-42
2020/12/12 03:16:43;;;;;;;47.47;18.73;;;4.40;99.90;;;;;;4142059;28;20739;-42
2020/12/12 03:18:45;;;;;;;54.77;20.13;;;4.40;99.90;;;;;;4142082;28;20329;-40
2020/12/12 03:20:46;;;;;;;46.97;19.30;;;4.40;99.90;;;;;;4141304;28;20280;-44
2020/12/12 03:22:47;;;;;;;48.07;19.40;;;4.40;99.90;;;;;;4141879;28;20353;-44
2020/12/12 03:24:48;;;;;;;47.83;19.97;;;4.30;99.90;;;;;;4141566;28;20275;-43
2020/12/12 03:26:50;;;;;;;48.63;19.67;;;4.30;99.90;;;;;;4141396;28;21153;-48
2020/12/12 03:28:51;;;;;;;44.83;19.63;;;4.30;99.90;;;;;;4150775;28;20282;-43
2020/12/12 03:30:52;;;;;;;56.73;21.63;;;4.30;99.90;;;;;;4144769;28;20291;-44
2020/12/12 03:32:53;;;;;;;49.40;20.93;;;4.40;99.90;;;;;;4143051;28;20275;-44
2020/12/12 03:34:54;;;;;;;52.50;20.60;;;4.30;99.90;;;;;;4157182;28;20279;-44
2020/12/12 03:36:55;;;;;;;54.77;21.87;;;4.30;99.90;;;;;;4158557;28;20352;-44
2020/12/12 03:38:56;;;;;;;55.30;21.60;;;4.30;99.90;;;;;;4158027;28;20279;-52
2020/12/12 03:40:57;;;;;;;55.10;20.27;;;4.30;99.90;;;;;;4149903;28;20354;-43
2020/12/12 03:42:58;;;;;;;57.13;20.97;;;4.30;99.90;;;;;;4140300;28;20706;-44
2020/12/12 03:45:00;;;;;;;55.00;19.83;;;4.30;99.90;;;;;;4142234;28;20283;-47
2020/12/12 03:47:02;;;;;;;51.33;21.80;;;4.30;99.90;;;;;;4150286;28;20278;-43
2020/12/12 03:49:03;;;;;;;52.73;20.00;;;4.30;99.90;;;;;;4157412;28;20271;-42
2020/12/12 03:51:04;;;;;;;57.80;20.70;;;4.30;99.90;;;;;;4157364;28;20299;-42
2020/12/12 03:53:05;;;;;;;56.43;21.03;;;4.30;99.90;;;;;;4147888;28;20283;-47
2020/12/12 03:55:07;;;;;;;52.80;21.33;;;4.30;99.90;;;;;;4141199;28;20326;-46
2020/12/12 03:57:08;;;;;;;59.47;22.30;;;4.20;99.90;;;;;;4155056;28;20324;-49
2020/12/12 03:59:09;;;;;;;56.30;21.33;;;4.30;99.90;;;;;;4158773;28;20262;-43
2020/12/12 04:01:10;;;;;;;51.20;20.47;;;4.20;99.90;;;;;;4142352;28;20318;-40
2020/12/12 04:03:11;;;;;;;60.40;21.67;;;4.30;99.90;;;;;;4142416;28;20604;-46
2020/12/12 04:05:12;;;;;;;51.20;21.37;;;4.20;99.90;;;;;;4139743;28;20322;-49
2020/12/12 04:07:13;;;;;;;49.17;21.30;;;4.30;99.90;;;;;;4157308;28;20344;-49
2020/12/12 04:09:14;;;;;;;49.87;21.20;;;4.30;99.90;;;;;;4157383;28;20267;-48
2020/12/12 04:11:16;;;;;;;59.00;22.00;;;4.30;99.90;;;;;;4157687;28;20698;-58
2020/12/12 04:13:18;;;;;;;50.37;20.47;;;4.30;99.90;;;;;;4156852;28;20337;-51
2020/12/12 04:15:19;;;;;;;47.07;20.20;;;4.30;99.90;;;;;;4158122;28;20270;-52
2020/12/12 04:17:20;;;;;;;53.63;21.63;;;4.30;99.90;;;;;;4150723;28;20811;-45
2020/12/12 04:19:22;;;;;;;47.77;22.17;;;4.30;99.90;;;;;;4140218;28;20318;-48
2020/12/12 04:21:24;;;;;;;52.13;21.07;;;4.30;99.90;;;;;;4142298;28;20839;-47
2020/12/12 04:23:25;;;;;;;49.67;20.77;;;4.30;99.90;;;;;;4140817;28;20272;-43
2020/12/12 04:25:26;;;;;;;51.60;21.47;;;4.30;99.90;;;;;;4140815;28;20271;-47
2020/12/12 04:27:30;;;;;;;51.93;21.03;;;4.30;99.90;;;;;;4140076;28;20318;-43
2020/12/12 04:29:31;;;;;;;48.80;19.50;;;4.30;99.90;;;;;;4141326;28;20303;-47
2020/12/12 04:31:32;;;;;;;48.27;21.27;;;4.30;99.90;;;;;;4139744;28;20338;-43
2020/12/12 04:33:34;;;;;;;49.30;21.27;;;4.30;99.90;;;;;;4141948;28;20797;-45
2020/12/12 04:35:35;;;;;;;45.83;19.63;;;4.30;99.90;;;;;;4149515;28;20274;-47
2020/12/12 04:37:36;;;;;;;46.87;20.10;;;4.30;99.90;;;;;;4157398;28;21167;-46
2020/12/12 04:39:37;;;;;;;44.60;19.30;;;4.30;99.90;;;;;;4156923;28;20690;-47
2020/12/12 04:41:42;;;;;;;50.33;20.83;;;4.30;99.90;;;;;;4156370;28;20310;-44
2020/12/12 04:43:44;;;;;;;48.70;20.27;;;4.30;99.90;;;;;;4146597;28;21150;-49
2020/12/12 04:45:48;;;;;;;47.67;20.23;;;4.40;99.90;;;;;;4142063;28;20279;-51
2020/12/12 04:47:50;;;;;;;55.53;22.17;;;4.30;99.90;;;;;;4139774;28;20292;-50
2020/12/12 04:49:51;;;;;;;45.20;20.93;;;4.40;99.90;;;;;;4140703;28;20291;-43
2020/12/12 04:51:53;;;;;;;49.80;21.83;;;4.40;99.90;;;;;;4140528;28;20337;-45
2020/12/12 04:53:59;;;;;;;44.40;20.10;;;4.40;99.90;;;;;;4141650;28;20345;-45
2020/12/12 04:56:04;;;;;;;49.50;20.93;;;4.50;99.90;;;;;;4139473;28;20311;-44
2020/12/12 04:58:05;;;;;;;52.77;20.83;;;4.40;99.90;;;;;;4147629;28;20324;-44
2020/12/12 05:00:11;;;;;;;46.27;20.07;;;4.40;99.90;;;;;;4157353;28;20638;-43
2020/12/12 05:02:13;;;;;;;49.90;20.33;;;4.40;99.90;;;;;;4156394;28;20329;-47
2020/12/12 05:04:14;;;;;;;50.17;20.63;;;4.40;99.90;;;;;;4157410;28;20308;-43
2020/12/12 05:06:15;;;;;;;47.20;19.53;;;4.40;99.90;;;;;;4155734;28;20275;-42
2020/12/12 05:08:17;;;;;;;45.87;19.53;;;4.40;99.90;;;;;;4157548;28;20693;-44
2020/12/12 05:10:18;;;;;;;45.40;19.43;;;4.40;99.90;;;;;;4154040;28;20302;-43
2020/12/12 05:12:19;;;;;;;48.43;21.10;;;4.30;99.90;;;;;;4145457;28;20345;-46
2020/12/12 05:14:20;;;;;;;48.90;20.03;;;4.40;99.90;;;;;;4140063;28;20303;-48
2020/12/12 05:16:22;;;;;;;43.23;18.57;;;4.40;99.90;;;;;;4141408;28;20298;-42
2020/12/12 05:18:24;;;;;;;41.03;19.37;;;4.40;99.90;;;;;;4139252;28;20321;-42
2020/12/12 05:20:25;;;;;;;42.77;19.00;;;4.30;99.90;;;;;;4140817;28;20314;-42
2020/12/12 05:22:26;;;;;;;45.70;19.90;;;4.30;99.90;;;;;;4152220;28;20333;-42
2020/12/12 05:24:28;;;;;;;48.30;19.97;;;4.30;99.90;;;;;;4156974;28;20262;-44
2020/12/12 05:26:30;;;;;;;42.00;18.03;;;4.30;99.90;;;;;;4156749;28;20259;-42
2020/12/12 05:28:31;;;;;;;44.97;19.20;;;4.30;99.90;;;;;;4155925;28;20279;-45
2020/12/12 05:30:43;;;;;;;44.43;18.33;;;4.30;99.90;;;;;;4129355;28;20335;-42
2020/12/12 05:32:46;;;;;;;42.47;19.27;;;4.30;99.90;;;;;;4140048;28;20272;-43
2020/12/12 05:34:53;;;;;;;40.80;18.70;;;4.30;99.90;;;;;;4139191;28;20321;-45
2020/12/12 05:36:55;;;;;;;47.60;18.57;;;4.20;99.90;;;;;;4139593;28;20627;-46
2020/12/12 05:38:59;;;;;;;43.23;19.70;;;4.20;99.90;;;;;;4144376;28;20287;-42
2020/12/12 05:41:00;;;;;;;43.27;18.50;;;4.20;99.90;;;;;;4154593;28;20341;-45
2020/12/12 05:43:03;;;;;;;43.83;19.43;;;4.20;99.90;;;;;;4156325;28;20372;-44
2020/12/12 05:45:06;;;;;;;43.43;19.37;;;4.10;99.90;;;;;;4155450;28;20804;-45
2020/12/12 05:47:07;;;;;;;44.57;18.70;;;4.10;99.90;;;;;;4158435;28;20263;-43
2020/12/12 05:49:08;;;;;;;43.57;19.67;;;4.10;99.90;;;;;;4144145;28;20267;-48
2020/12/12 05:51:09;;;;;;;45.87;19.97;;;4.20;99.90;;;;;;4144360;28;20287;-42
2020/12/12 05:53:11;;;;;;;40.00;18.73;;;4.20;99.90;;;;;;4142726;28;20268;-42
2020/12/12 05:55:12;;;;;;;47.67;19.30;;;4.20;99.90;;;;;;4156950;28;20286;-43
2020/12/12 05:57:15;;;;;;;44.13;20.03;;;4.10;99.90;;;;;;4141961;28;20357;-42
2020/12/12 05:59:16;;;;;;;46.90;20.40;;;4.10;99.90;;;;;;4143022;28;20850;-44
2020/12/12 06:01:20;;;;;;;45.73;21.33;;;4.10;99.90;;;;;;4141735;28;20370;-42
2020/12/12 06:03:30;;;;;;;46.83;21.30;;;4.10;99.90;;;;;;4143709;28;20325;-44
2020/12/12 06:05:33;;;;;;;45.83;22.27;;;4.00;99.90;;;;;;4150948;28;20271;-41
2020/12/12 06:07:38;;;;;;;48.37;21.27;;;4.00;99.90;;;;;;4159320;28;20029;-43
2020/12/12 06:09:43;;;;;;;50.45;21.30;;;4.00;99.90;;;;;;4141423;28;20342;-42
2020/12/12 06:11:46;;;;;;;45.63;21.07;;;4.00;99.90;;;;;;4158533;28;20320;-45
2020/12/12 06:13:49;;;;;;;46.10;19.33;;;4.00;99.90;;;;;;4158834;28;20313;-42
2020/12/12 06:15:53;;;;;;;48.20;20.60;;;4.00;99.90;;;;;;4159520;28;20266;-42
2020/12/12 06:18:22;;;;;;;47.77;21.57;;;4.00;99.90;;;;;;4158274;28;20286;-41
2020/12/12 06:20:26;;;;;;;48.73;21.20;;;4.00;99.90;;;;;;4159490;28;20333;-42
2020/12/12 06:22:30;;;;;;;54.27;22.60;;;4.10;99.90;;;;;;4152771;28;20256;-44
2020/12/12 06:24:33;;;;;;;54.77;23.87;;;4.10;99.90;;;;;;4142239;28;20314;-42
2020/12/12 06:26:46;;;;;;;49.97;22.87;;;4.10;99.90;;;;;;4142416;28;20693;-40
2020/12/12 06:28:47;;;;;;;40.17;18.27;;;4.20;99.90;;;;;;4141883;28;20373;-43
2020/12/12 06:30:50;;;;;;;38.33;17.03;;;4.20;99.90;;;;;;4142707;28;20295;-47
2020/12/12 06:32:59;;;;;;;34.47;15.93;;;4.20;99.90;;;;;;4141535;28;20279;-43
2020/12/12 06:35:00;;;;;;;32.03;14.57;;;4.20;99.90;;;;;;4143116;28;20275;-47
2020/12/12 06:37:01;;;;;;;30.57;14.77;;;4.20;99.90;;;;;;4141055;28;20751;-52
2020/12/12 06:39:24;;;;;;;36.17;15.87;;;4.20;99.90;;;;;;4142969;28;20767;-48
2020/12/12 06:41:34;;;;;;;40.27;20.13;;;4.30;99.90;;;;;;4128375;28;20287;-46
2020/12/12 06:43:36;;;;;;;44.40;19.52;;;4.30;99.90;;;;;;4142754;28;20703;-44
2020/12/12 06:45:37;;;;;;;50.37;23.03;;;4.30;99.90;;;;;;4150696;28;20041;-48
2020/12/12 06:47:44;;;;;;;49.97;22.10;;;4.30;99.90;;;;;;4150968;28;20725;-50
2020/12/12 06:50:07;;;;;;;39.77;19.13;;;4.20;99.90;;;;;;4141895;28;20314;-49
2020/12/12 06:52:28;;;;;;;42.60;20.23;;;4.20;99.90;;;;;;4142980;28;20268;-53
2020/12/12 06:54:29;;;;;;;36.60;18.15;;;4.20;99.90;;;;;;4141462;28;20837;-43
2020/12/12 06:56:32;;;;;;;45.87;23.80;;;4.30;99.90;;;;;;4157814;28;20918;-45
2020/12/12 06:58:33;;;;;;;52.47;26.03;;;4.20;99.90;;;;;;4154883;28;20267;-43
2020/12/12 07:00:35;;;;;;;52.63;24.47;;;4.20;99.90;;;;;;4142981;28;20317;-40
2020/12/12 07:02:36;;;;;;;47.97;23.87;;;4.20;99.90;;;;;;4141581;28;20267;-45
2020/12/12 07:04:38;;;;;;;51.90;25.77;;;4.20;99.90;;;;;;4148079;28;20274;-42
2020/12/12 07:06:39;;;;;;;41.13;22.20;;;4.30;99.90;;;;;;4157736;28;20340;-45
2020/12/12 07:08:41;;;;;;;35.40;19.43;;;4.20;99.90;;;;;;4159348;28;20270;-44
2020/12/12 07:10:44;;;;;;;39.20;19.67;;;4.20;99.90;;;;;;4156331;28;20368;-45
2020/12/12 07:12:45;;;;;;;38.27;18.40;;;4.30;99.90;;;;;;4158919;28;20316;-47
2020/12/12 07:14:46;;;;;;;31.53;16.47;;;4.30;99.90;;;;;;4144586;28;20321;-45
2020/12/12 07:16:54;;;;;;;34.70;17.70;;;4.30;99.90;;;;;;4142273;28;20667;-42
2020/12/12 07:18:56;;;;;;;31.10;15.67;;;4.30;99.90;;;;;;4141570;28;20326;-43
2020/12/12 07:21:00;;;;;;;30.77;15.30;;;4.30;99.90;;;;;;4153922;28;20325;-42
2020/12/12 07:23:06;;;;;;;35.27;18.07;;;4.40;99.90;;;;;;4146801;28;20271;-51
2020/12/12 07:25:08;;;;;;;34.47;17.57;;;4.40;99.90;;;;;;4155744;28;20290;-45
2020/12/12 07:27:09;;;;;;;30.60;16.30;;;4.50;99.90;;;;;;4157878;28;20334;-47
2020/12/12 07:29:10;;;;;;;25.47;13.17;;;4.50;99.90;;;;;;4157045;28;20287;-41
2020/12/12 07:31:11;;;;;;;52.23;25.70;;;4.50;99.90;;;;;;4151081;28;20849;-44
2020/12/12 07:33:12;;;;;;;54.53;25.80;;;4.50;99.90;;;;;;4149157;28;20279;-40
2020/12/12 07:35:13;;;;;;;50.40;25.03;;;4.50;99.90;;;;;;4142138;28;20314;-44
2020/12/12 07:37:14;;;;;;;52.10;25.70;;;4.40;99.90;;;;;;4140337;28;20283;-43
2020/12/12 07:39:16;;;;;;;51.97;25.10;;;4.40;99.90;;;;;;4145742;28;20388;-45
2020/12/12 07:41:17;;;;;;;54.27;25.00;;;4.40;99.90;;;;;;4145251;28;20274;-46
2020/12/12 07:43:19;;;;;;;47.73;23.77;;;4.40;99.90;;;;;;4158596;28;20321;-46
2020/12/12 07:47:37;;;;;;;44.87;19.10;;;4.50;99.90;;;;;;4142283;28;20322;-47
2020/12/12 07:49:38;;;;;;;40.80;20.10;;;4.50;99.90;;;;;;4140888;28;20351;-40
2020/12/12 07:51:39;;;;;;;51.17;23.80;;;4.50;99.90;;;;;;4157944;28;20286;-54
2020/12/12 07:53:40;;;;;;;65.03;28.70;;;4.50;99.90;;;;;;4156001;28;20255;-42
2020/12/12 07:55:51;;;;;;;49.13;24.63;;;4.50;99.90;;;;;;4157929;28;20279;-43
2020/12/12 07:57:56;;;;;;;56.35;29.17;;;4.50;99.90;;;;;;4155825;28;20275;-46
2020/12/12 08:00:06;;;;;;;52.37;25.70;;;4.40;99.90;;;;;;4132483;28;20145;-41
2020/12/12 08:02:09;;;;;;;51.00;22.38;;;4.50;99.90;;;;;;4141322;28;20739;-46
2020/12/12 08:04:18;;;;;;;48.67;20.97;;;4.50;99.90;;;;;;4141068;28;20026;-43
2020/12/12 08:06:19;;;;;;;42.53;20.77;;;4.50;99.90;;;;;;4140953;28;20267;-48
2020/12/12 08:08:20;;;;;;;43.60;21.03;;;4.50;99.90;;;;;;4123467;28;20325;-44
2020/12/12 08:10:21;;;;;;;48.93;21.60;;;4.50;99.90;;;;;;4141231;28;20275;-45
2020/12/12 08:12:31;;;;;;;42.13;19.63;;;4.60;99.90;;;;;;4140130;28;20617;-45
2020/12/12 08:14:42;;;;;;;42.85;18.83;;;4.60;99.90;;;;;;4141416;28;20657;-43
2020/12/12 08:16:45;;;;;;;37.58;17.27;;;4.70;99.90;;;;;;4140644;28;20046;-39
2020/12/12 08:18:47;;;;;;;37.23;17.00;;;4.70;99.90;;;;;;4141183;28;20041;-45
2020/12/12 08:20:48;;;;;;;33.37;14.87;;;4.70;99.90;;;;;;4139848;28;20678;-39
2020/12/12 08:22:50;;;;;;;32.20;15.70;;;4.70;99.90;;;;;;4146152;28;20275;-43
2020/12/12 08:24:52;;;;;;;33.73;17.23;;;4.80;99.90;;;;;;4146364;28;20279;-42
2020/12/12 08:26:53;;;;;;;36.90;16.93;;;4.80;99.90;;;;;;4158137;28;20275;-46
2020/12/12 08:28:59;;;;;;;29.43;16.80;;;4.80;99.90;;;;;;4149748;28;20287;-43
2020/12/12 08:31:17;;;;;;;48.97;24.90;;;4.90;99.90;;;;;;4141011;28;20365;-43
2020/12/12 08:33:19;;;;;;;60.73;19.57;;;5.00;99.90;;;;;;4138071;28;20326;-41
2020/12/12 08:35:25;;;;;;;46.07;23.17;;;5.00;99.90;;;;;;4140886;28;20342;-42
2020/12/12 08:37:26;;;;;;;32.90;16.37;;;5.00;99.90;;;;;;4139829;28;20322;-47
2020/12/12 08:39:28;;;;;;;37.80;18.53;;;5.10;99.90;;;;;;4123962;28;20284;-51
2020/12/12 08:41:37;;;;;;;45.67;19.03;;;5.00;99.90;;;;;;4150017;28;21039;-43
2020/12/12 08:43:41;;;;;;;35.07;16.97;;;5.10;99.90;;;;;;4158129;28;20270;-47
2020/12/12 08:45:54;;;;;;;50.93;27.10;;;5.10;99.90;;;;;;4156022;28;20373;-39
2020/12/12 08:48:03;;;;;;;44.07;21.53;;;5.10;99.90;;;;;;4157274;28;20328;-54
2020/12/12 08:50:04;;;;;;;32.53;17.67;;;5.10;99.90;;;;;;4156745;28;20320;-45
2020/12/12 08:52:05;;;;;;;36.27;17.50;;;5.20;99.90;;;;;;4155748;28;20314;-44
2020/12/12 08:54:12;;;;;;;43.07;20.57;;;5.20;99.90;;;;;;4138558;28;20279;-43
2020/12/12 08:56:22;;;;;;;40.30;19.40;;;5.20;99.90;;;;;;4140422;28;20290;-44
2020/12/12 08:58:51;;;;;;;34.45;16.83;;;5.10;99.90;;;;;;4138804;28;20298;-43
2020/12/12 09:01:28;;;;;;;35.23;17.67;;;5.10;99.90;;;;;;4140528;28;20379;-48
2020/12/12 09:03:29;;;;;;;30.03;16.83;;;5.00;99.90;;;;;;4139184;28;20271;-45
2020/12/12 09:05:35;;;;;;;35.40;17.33;;;5.00;99.90;;;;;;4141455;28;20263;-43
2020/12/12 09:07:37;;;;;;;25.67;14.50;;;5.00;99.90;;;;;;4139144;28;20317;-43
2020/12/12 09:09:38;;;;;;;28.50;14.50;;;4.90;99.90;;;;;;4141106;28;20275;-43
2020/12/12 09:11:44;;;;;;;28.57;13.77;;;4.90;99.90;;;;;;4144600;28;20290;-45
2020/12/12 09:13:47;;;;;;;30.77;15.23;;;4.90;99.90;;;;;;4157474;28;20271;-39
2020/12/12 09:15:48;;;;;;;27.57;13.67;;;5.00;99.90;;;;;;4155306;28;20815;-47
2020/12/12 09:17:59;;;;;;;24.33;12.47;;;5.00;99.90;;;;;;4138446;28;20845;-49
2020/12/12 09:20:01;;;;;;;25.23;12.87;;;4.90;99.90;;;;;;4123736;28;20731;-46
2020/12/12 09:22:05;;;;;;;22.30;12.00;;;5.00;99.90;;;;;;4128743;28;20279;-43
2020/12/12 09:24:06;;;;;;;24.60;13.17;;;5.00;99.90;;;;;;4144022;28;20669;-55
2020/12/12 09:26:08;;;;;;;26.83;11.73;;;5.00;99.90;;;;;;4152562;28;20271;-43
2020/12/12 09:28:10;;;;;;;25.63;11.90;;;5.00;99.90;;;;;;4143950;28;20267;-44
2020/12/12 09:30:11;;;;;;;27.60;13.03;;;5.00;99.90;;;;;;4139402;28;20317;-45
2020/12/12 09:32:12;;;;;;;32.67;16.47;;;5.00;99.90;;;;;;4128290;28;20300;-45
2020/12/12 09:34:13;;;;;;;24.83;12.90;;;5.00;99.90;;;;;;4121246;28;20280;-43
2020/12/12 09:36:14;;;;;;;26.03;13.23;;;5.00;99.90;;;;;;4123939;28;20280;-48
2020/12/12 09:38:16;;;;;;;38.03;21.50;;;5.00;99.90;;;;;;4123463;28;20323;-46
2020/12/12 09:40:17;;;;;;;47.10;22.43;;;5.00;99.90;;;;;;4124306;28;20280;-48
2020/12/12 09:42:18;;;;;;;39.00;21.97;;;5.00;99.90;;;;;;4121727;28;20280;-46
2020/12/12 09:44:19;;;;;;;37.87;20.10;;;4.90;99.90;;;;;;4128213;28;20740;-47
2020/12/12 09:46:20;;;;;;;42.97;25.03;;;4.90;99.90;;;;;;4123213;28;20260;-46
2020/12/12 09:48:22;;;;;;;32.80;16.97;;;4.90;99.90;;;;;;4123879;28;20280;-47
2020/12/12 09:50:33;;;;;;;22.67;12.07;;;4.90;99.90;;;;;;4122819;28;20664;-45
2020/12/12 09:52:35;;;;;;;22.03;12.03;;;4.90;99.90;;;;;;4124039;28;20713;-47
2020/12/12 09:54:36;;;;;;;26.23;11.97;;;4.90;99.90;;;;;;4123731;28;20318;-46
2020/12/12 09:56:37;;;;;;;19.93;10.97;;;4.90;99.90;;;;;;4122572;28;20346;-39
2020/12/12 09:58:38;;;;;;;35.73;18.40;;;4.90;99.90;;;;;;4123842;28;20742;-53
2020/12/12 10:00:41;;;;;;;44.90;23.87;;;4.90;99.90;;;;;;4123167;28;20284;-43
2020/12/12 10:02:42;;;;;;;50.93;25.67;;;4.90;99.90;;;;;;4122777;28;20284;-46
2020/12/12 10:04:43;;;;;;;43.10;24.77;;;4.90;99.90;;;;;;4122841;28;20315;-44
2020/12/12 10:06:44;;;;;;;43.10;23.77;;;4.90;99.90;;;;;;4123675;28;20303;-53
2020/12/12 10:08:46;;;;;;;36.87;21.20;;;5.00;99.90;;;;;;4122741;28;20283;-51
2020/12/12 10:10:47;;;;;;;28.90;16.13;;;5.00;99.90;;;;;;4124100;28;20268;-50
2020/12/12 10:12:48;;;;;;;23.13;12.97;;;5.00;99.90;;;;;;4123056;28;20342;-55
2020/12/12 10:14:49;;;;;;;26.90;13.10;;;5.00;99.90;;;;;;4124452;28;20315;-48
2020/12/12 10:16:53;;;;;;;28.70;13.60;;;5.00;99.90;;;;;;4122310;28;20787;-53
2020/12/12 10:18:54;;;;;;;22.63;11.60;;;5.10;99.90;;;;;;4124106;28;20260;-55
2020/12/12 10:20:56;;;;;;;31.13;16.30;;;5.20;99.90;;;;;;4134496;28;20334;-44
2020/12/12 10:22:57;;;;;;;34.77;17.57;;;5.20;99.90;;;;;;4140536;28;20271;-52
2020/12/12 10:24:58;;;;;;;31.07;16.37;;;5.20;99.90;;;;;;4139542;28;20323;-41
2020/12/12 10:27:00;;;;;;;30.53;16.03;;;5.30;99.90;;;;;;4140133;28;20279;-51
2020/12/12 10:29:01;;;;;;;28.57;15.10;;;5.30;99.90;;;;;;4139584;28;20346;-51
2020/12/12 10:31:02;;;;;;;26.70;14.20;;;5.30;99.90;;;;;;4138623;28;20795;-45
2020/12/12 10:33:03;;;;;;;28.23;14.60;;;5.40;99.90;;;;;;4139482;28;20756;-46